Wetterverlauf

Letzte Wetterlage 16.04.2014 18:03
Wetterdiagramm
Tabellarische Darstellung
Datum Temperatur Windchill Feuchte Luftdruck Windrichtung Windstärke Niederschlag
16.04.2014 18:13 18 °C 18 °C 27 % 1027,9 hPa 135 1.4 0,00 mm
16.04.2014 18:03 18 °C 18 °C 28 % 1028,1 hPa 158 0.7 0,00 mm
16.04.2014 17:48 17 °C 17 °C 26 % 1028,1 hPa 135 2.0 0,00 mm
16.04.2014 17:38 18 °C 18 °C 25 % 1028,2 hPa 180 0.7 0,00 mm
16.04.2014 17:28 18 °C 18 °C 26 % 1028,3 hPa 45 1.4 0,00 mm
16.04.2014 17:18 19 °C 19 °C 27 % 1028,4 hPa 90 1.7 0,00 mm
16.04.2014 17:08 19 °C 19 °C 31 % 1028,5 hPa 180 0.7 0,00 mm
16.04.2014 16:53 17 °C 17 °C 30 % 1028,6 hPa 315 0.7 0,00 mm
16.04.2014 16:43 16 °C 16 °C 31 % 1028,6 hPa 90 0.7 0,00 mm
16.04.2014 16:33 16 °C 16 °C 31 % 1028,7 hPa 23 1.0 0,00 mm
16.04.2014 16:23 16 °C 14 °C 32 % 1028,8 hPa 0 2.7 0,00 mm
16.04.2014 16:13 16 °C 16 °C 31 % 1029,0 hPa 0 0.3 0,00 mm
16.04.2014 16:03 16 °C 15 °C 33 % 1029,0 hPa 90 2.4 0,00 mm
16.04.2014 15:53 16 °C 16 °C 33 % 1029,2 hPa 45 1.0 0,00 mm
16.04.2014 15:43 16 °C 16 °C 33 % 1029,4 hPa 45 0.7 0,00 mm
16.04.2014 15:33 16 °C 16 °C 33 % 1029,5 hPa 45 2.0 0,00 mm
16.04.2014 15:23 16 °C 13 °C 32 % 1029,4 hPa 180 3.4 0,00 mm
16.04.2014 15:13 15 °C 15 °C 33 % 1029,9 hPa 270 1.4 0,00 mm
16.04.2014 15:03 15 °C 15 °C 33 % 1029,9 hPa 45 0.3 0,00 mm
16.04.2014 14:53 15 °C 15 °C 35 % 1029,9 hPa 0 2.0 0,00 mm
16.04.2014 14:43 15 °C 15 °C 36 % 1029,9 hPa 0 2.0 0,00 mm
16.04.2014 14:33 15 °C 15 °C 35 % 1030,0 hPa 0 1.0 0,00 mm
16.04.2014 14:23 14 °C 14 °C 38 % 1030,1 hPa 180 0.3 0,00 mm
16.04.2014 14:13 14 °C 14 °C 37 % 1030,2 hPa 0 1.7 0,00 mm
16.04.2014 14:03 14 °C 14 °C 37 % 1030,2 hPa 45 0.3 0,00 mm
1
Empfehlen Sie wetter.com
| Mehr
Neue Wetterwarnung

Neue Niederschlagsmeldung
Neue Meldung
Regen Liveticker
    sehr starker Regen/Gewitter
    starker Regen/Gewitter
    mäßiger bis starker Regen
    mäßiger Regen
    leichter bis mäßiger Regen
    kein Regen